Terminal Aerodrome Forecast
Issued by NWS

Home | Current Version | Previous Version | Text Only | Print | Product List | Glossary On
Versions: 1 2 3 4 5 6 7 8 9 10 11 12 13 14 15 16 17 18 19 20
870
FTUS46 KSTO 101739
TAFSCK
TAF
KSCK 101739Z 1018/1118 16008KT P6SM -SHRA OVC050
      TEMPO 1018/1022 3SM -RA OVC025
     FM110300 16005KT 5SM BR OVC025
     FM110900 VRB04KT P6SM FEW025 FEW250
     FM111200 VRB04KT 2SM BR FEW250=

USA.gov is the U.S. government's official web portal to all federal, state and local government web resources and services.